
Distance (Route):
Temperature : 14.2°C
Humidity : 28.8%
Pressure : 0hPa| Receiver | Frames | First received | Last received |
|---|---|---|---|
| LZ4TU-5 | 120 | 2026-09-05 05:41:38 | 2026-09-05 07:08:07 |
| Receiver | Date | Latitude | Longitude | Direction | Speed | Altitude | Climb | Temperature | Humidity | Pressure | Voltage | Killtimer | Uptime | BKT | XDATA |
|---|---|---|---|---|---|---|---|---|---|---|---|---|---|---|---|
| LZ4TU-5 | 2026-09-05 07:08:07 | 42.46704 | 23.54013 | 181° | 15km/h | 2363m | -17.6m/s | 14.2°C | 28.8% | 0hPa | 0V | 08:16:00 | 00:00:00 | 00:00:00 | |
| LZ4TU-5 | 2026-09-05 07:07:58 | 42.46734 | 23.54012 | 183° | 15km/h | 2519m | -17.4m/s | 12.9°C | 32.5% | 0hPa | 0V | 08:16:00 | 00:00:00 | 00:00:00 | |
| LZ4TU-5 | 2026-09-05 07:07:54 | 42.46749 | 23.54013 | 185° | 13km/h | 2587m | -17.2m/s | 12.4°C | 33.2% | 0hPa | 0V | 08:16:00 | 00:00:00 | 00:00:00 | |
| LZ4TU-5 | 2026-09-05 07:07:50 | 42.46769 | 23.54016 | 192° | 15km/h | 2673m | -17.3m/s | 11.8°C | 38.3% | 0hPa | 0V | 08:17:00 | 00:00:00 | 00:00:00 | |
| LZ4TU-5 | 2026-09-05 07:07:46 | 42.46784 | 23.54022 | 198° | 16km/h | 2741m | -17.2m/s | 11.4°C | 37.3% | 0hPa | 0V | 08:17:00 | 00:00:00 | 00:00:00 | |
| LZ4TU-5 | 2026-09-05 07:07:42 | 42.46801 | 23.54031 | 209° | 16km/h | 2809m | -17.4m/s | 11.0°C | 37.0% | 0hPa | 0V | 08:17:00 | 00:00:00 | 00:00:00 | |
| LZ4TU-5 | 2026-09-05 07:07:37 | 42.46820 | 23.54042 | 211° | 22km/h | 2878m | -17.3m/s | 10.7°C | 43.2% | 0hPa | 0V | 08:17:00 | 00:00:00 | 00:00:00 | |
| LZ4TU-5 | 2026-09-05 07:07:33 | 42.46847 | 23.54058 | 206° | 24km/h | 2964m | -17.1m/s | 10.2°C | 40.4% | 0hPa | 0V | 08:17:00 | 00:00:00 | 00:00:00 | |
| LZ4TU-5 | 2026-09-05 07:07:23 | 42.46904 | 23.54083 | 195° | 22km/h | 3136m | -17.6m/s | 9.3°C | 30.4% | 0hPa | 0V | 08:17:00 | 00:00:00 | 00:00:00 | |
| LZ4TU-5 | 2026-09-05 07:07:19 | 42.46927 | 23.54094 | 205° | 27km/h | 3206m | -17.3m/s | 9.0°C | 27.5% | 0hPa | 0V | 08:17:00 | 00:00:00 | 00:00:00 | |
| LZ4TU-5 | 2026-09-05 07:07:14 | 42.46952 | 23.54112 | 207° | 27km/h | 3275m | -17.4m/s | 8.6°C | 36.2% | 0hPa | 0V | 08:17:00 | 00:00:00 | 00:00:00 | |
| LZ4TU-5 | 2026-09-05 07:07:10 | 42.46983 | 23.54134 | 217° | 27km/h | 3362m | -17.8m/s | 8.1°C | 33.3% | 0hPa | 0V | 08:17:00 | 00:00:00 | 00:00:00 | |
| LZ4TU-5 | 2026-09-05 07:07:01 | 42.47026 | 23.54179 | 227° | 22km/h | 3520m | -17.6m/s | 7.4°C | 16.4% | 0hPa | 0V | 00:00:00 | 00:00:00 | 00:00:00 | |
| LZ4TU-5 | 2026-09-05 07:06:57 | 42.47042 | 23.54202 | 222° | 26km/h | 3589m | -17.7m/s | 7.0°C | 18.1% | 0hPa | 0V | 00:00:00 | 00:00:00 | 00:00:00 | |
| LZ4TU-5 | 2026-09-05 07:06:52 | 42.47068 | 23.54232 | 221° | 27km/h | 3677m | -17.6m/s | 6.1°C | 33.2% | 0hPa | 0V | 00:00:00 | 00:00:00 | 00:00:00 | |
| LZ4TU-5 | 2026-09-05 07:06:47 | 42.47095 | 23.54263 | 220° | 31km/h | 3761m | -16.8m/s | 5.4°C | 41.3% | 0hPa | 0V | 00:00:00 | 00:00:00 | 00:00:00 | |
| LZ4TU-5 | 2026-09-05 07:06:42 | 42.47116 | 23.54290 | 222° | 31km/h | 3827m | -17.4m/s | 4.9°C | 44.7% | 0hPa | 0V | 00:00:00 | 00:00:00 | 00:00:00 | |
| LZ4TU-5 | 2026-09-05 07:06:38 | 42.47145 | 23.54324 | 221° | 33km/h | 3919m | -19.3m/s | 4.2°C | 44.5% | 0hPa | 0V | 00:00:00 | 00:00:00 | 00:00:00 | |
| LZ4TU-5 | 2026-09-05 07:06:33 | 42.47176 | 23.54359 | 225° | 29km/h | 4012m | -19.8m/s | 3.5°C | 43.6% | 0hPa | 0V | 00:00:00 | 00:00:00 | 00:00:00 | |
| LZ4TU-5 | 2026-09-05 07:05:38 | 42.47519 | 23.54674 | 211° | 29km/h | 5111m | -21.4m/s | -4.8°C | 39.9% | 0hPa | 0V | 00:00:00 | 00:00:00 | 00:00:00 | |
| LZ4TU-5 | 2026-09-05 07:05:33 | 42.47547 | 23.54701 | 213° | 26km/h | 5207m | -15.8m/s | -5.5°C | 0% | 0hPa | 0V | 00:00:00 | 00:00:00 | 00:00:00 | |
| LZ4TU-5 | 2026-09-05 07:04:37 | 42.47875 | 23.54766 | 137° | 29km/h | 6318m | -22.1m/s | -10.0°C | 21.4% | 0hPa | 0V | 00:00:00 | 00:00:00 | 00:00:00 | |
| LZ4TU-5 | 2026-09-05 07:04:33 | 42.47898 | 23.54741 | 150° | 29km/h | 6408m | -22.5m/s | -10.5°C | 9.4% | 0hPa | 0V | 00:00:00 | 00:00:00 | 00:00:00 | |
| LZ4TU-5 | 2026-09-05 07:02:06 | 42.48751 | 23.53928 | 146° | 31km/h | 9662m | -22.9m/s | -34.5°C | 9.7% | 0hPa | 0V | 00:00:00 | 00:00:00 | 00:00:00 | |
| LZ4TU-5 | 2026-09-05 07:02:02 | 42.48777 | 23.53901 | 146° | 35km/h | 9754m | -22.4m/s | -35.3°C | 8.6% | 0hPa | 0V | 00:00:00 | 00:00:00 | 00:00:00 | |
| LZ4TU-5 | 2026-09-05 07:00:59 | 42.49225 | 23.53598 | 154° | 33km/h | 11226m | -24.8m/s | -48.1°C | 19.9% | 0hPa | 0V | 00:00:00 | 00:00:00 | 00:00:00 | |
| LZ4TU-5 | 2026-09-05 07:00:54 | 42.49263 | 23.53568 | 148° | 35km/h | 11350m | -25.0m/s | -49.1°C | 19.3% | 0hPa | 0V | 00:00:00 | 00:00:00 | 00:00:00 | |
| LZ4TU-5 | 2026-09-05 06:59:51 | 42.49738 | 23.53248 | 137° | 24km/h | 13007m | -27.9m/s | -61.4°C | 20.1% | 0hPa | 0V | 00:00:00 | 00:00:00 | 00:00:00 | |
| LZ4TU-5 | 2026-09-05 06:59:47 | 42.49755 | 23.53226 | 141° | 26km/h | 13118m | -27.9m/s | -62.2°C | 18.5% | 0hPa | 0V | 00:00:00 | 00:00:00 | 00:00:00 | |
| LZ4TU-5 | 2026-09-05 06:54:19 | 42.49852 | 23.51795 | 285° | 9km/h | 26595m | -63.4m/s | -48.2°C | 1.0% | 0hPa | 0V | 00:00:00 | 00:00:00 | 00:00:00 | |
| LZ4TU-5 | 2026-09-05 06:54:14 | 42.49847 | 23.51808 | 296° | 13km/h | 26831m | -55.3m/s | -48.4°C | 0.9% | 0hPa | 0V | 00:00:00 | 00:00:00 | 00:00:00 | |
| LZ4TU-5 | 2026-09-05 06:52:56 | 42.49753 | 23.52241 | 198° | 7km/h | 26834m | 6.3m/s | -49.2°C | 1.0% | 0hPa | 0V | 00:00:00 | 00:00:00 | 00:00:00 | |
| LZ4TU-5 | 2026-09-05 06:52:52 | 42.49767 | 23.52250 | 197° | 18km/h | 26810m | 6.4m/s | -49.4°C | 1.1% | 0hPa | 0V | 00:00:00 | 00:00:00 | 00:00:00 | |
| LZ4TU-5 | 2026-09-05 06:51:20 | 42.49742 | 23.52572 | 213° | 9km/h | 26255m | 5.4m/s | -49.4°C | 1.1% | 0hPa | 0V | 00:00:00 | 00:00:00 | 00:00:00 | |
| LZ4TU-5 | 2026-09-05 06:50:01 | 42.49653 | 23.52518 | 166° | 5km/h | 25770m | 7.4m/s | -49.7°C | 1.1% | 0hPa | 0V | 00:00:00 | 00:00:00 | 00:00:00 | |
| LZ4TU-5 | 2026-09-05 06:49:57 | 42.49652 | 23.52517 | 352° | 9km/h | 25744m | 5.5m/s | -50.2°C | 1.1% | 0hPa | 0V | 00:00:00 | 00:00:00 | 00:00:00 | |
| LZ4TU-5 | 2026-09-05 06:49:53 | 42.49644 | 23.52525 | 329° | 9km/h | 25719m | 7.2m/s | -50.0°C | 1.1% | 0hPa | 0V | 00:00:00 | 00:00:00 | 00:00:00 | |
| LZ4TU-5 | 2026-09-05 06:47:59 | 42.49764 | 23.52604 | 73° | 11km/h | 25028m | 6.1m/s | -51.4°C | 1.2% | 0hPa | 0V | 00:00:00 | 00:00:00 | 00:00:00 | |
| LZ4TU-5 | 2026-09-05 06:46:38 | 42.49502 | 23.52485 | 352° | 26km/h | 24549m | 4.8m/s | -50.6°C | 1.2% | 0hPa | 0V | 00:00:00 | 00:00:00 | 00:00:00 | |
| LZ4TU-5 | 2026-09-05 06:46:33 | 42.49480 | 23.52499 | 323° | 22km/h | 24526m | 7.0m/s | -50.6°C | 1.2% | 0hPa | 0V | 00:00:00 | 00:00:00 | 00:00:00 | |
| LZ4TU-5 | 2026-09-05 06:45:07 | 42.49186 | 23.52709 | 314° | 9km/h | 24008m | 6.3m/s | -50.7°C | 1.2% | 0hPa | 0V | 00:00:00 | 00:00:00 | 00:00:00 | |
| LZ4TU-5 | 2026-09-05 06:43:37 | 42.49168 | 23.52914 | 238° | 15km/h | 23461m | 5.8m/s | -52.1°C | 1.3% | 0hPa | 0V | 00:00:00 | 00:00:00 | 00:00:00 | |
| LZ4TU-5 | 2026-09-05 06:41:49 | 42.49115 | 23.52895 | 321° | 15km/h | 22821m | 5.8m/s | -54.3°C | 1.4% | 0hPa | 0V | 00:00:00 | 00:00:00 | 00:00:00 | |
| LZ4TU-5 | 2026-09-05 06:41:44 | 42.49099 | 23.52908 | 332° | 18km/h | 22795m | 5.1m/s | -54.2°C | 1.4% | 0hPa | 0V | 00:00:00 | 00:00:00 | 00:00:00 | |
| LZ4TU-5 | 2026-09-05 06:40:26 | 42.49066 | 23.53297 | 218° | 15km/h | 22358m | 6.6m/s | -53.4°C | 1.4% | 0hPa | 0V | 00:00:00 | 00:00:00 | 00:00:00 | |
| LZ4TU-5 | 2026-09-05 06:40:21 | 42.49080 | 23.53312 | 221° | 18km/h | 22335m | 5.3m/s | -53.2°C | 1.3% | 0hPa | 0V | 00:00:00 | 00:00:00 | 00:00:00 | |
| LZ4TU-5 | 2026-09-05 06:38:56 | 42.48930 | 23.53366 | 332° | 22km/h | 21836m | 5.3m/s | -55.8°C | 1.5% | 0hPa | 0V | 00:00:00 | 00:00:00 | 00:00:00 | |
| LZ4TU-5 | 2026-09-05 06:37:35 | 42.48973 | 23.53375 | 29° | 7km/h | 21361m | 4.8m/s | -55.3°C | 1.5% | 0hPa | 0V | 00:00:00 | 00:00:00 | 00:00:00 | |
| LZ4TU-5 | 2026-09-05 06:37:31 | 42.48968 | 23.53375 | 320° | 7km/h | 21336m | 4.9m/s | -55.3°C | 1.5% | 0hPa | 0V | 00:00:00 | 00:00:00 | 00:00:00 | |
| LZ4TU-5 | 2026-09-05 06:36:10 | 42.48830 | 23.53531 | 302° | 20km/h | 20880m | 6.8m/s | -56.1°C | 1.6% | 0hPa | 0V | 00:00:00 | 00:00:00 | 00:00:00 | |
| LZ4TU-5 | 2026-09-05 06:36:06 | 42.48819 | 23.53551 | 321° | 16km/h | 20857m | 4.7m/s | -56.2°C | 1.5% | 0hPa | 0V | 00:00:00 | 00:00:00 | 00:00:00 | |
| LZ4TU-5 | 2026-09-05 06:34:36 | 42.48700 | 23.53570 | 153° | 9km/h | 20350m | 6.1m/s | -57.1°C | 1.6% | 0hPa | 0V | 00:00:00 | 00:00:00 | 00:00:00 | |
| LZ4TU-5 | 2026-09-05 06:34:32 | 42.48708 | 23.53568 | 154° | 9km/h | 20329m | 4.4m/s | -56.9°C | 1.6% | 0hPa | 0V | 00:00:00 | 00:00:00 | 00:00:00 | |
| LZ4TU-5 | 2026-09-05 06:33:11 | 42.48668 | 23.53608 | 338° | 9km/h | 19888m | 6.4m/s | -56.2°C | 1.5% | 0hPa | 0V | 00:00:00 | 00:00:00 | 00:00:00 | |
| LZ4TU-5 | 2026-09-05 06:33:07 | 42.48662 | 23.53612 | 0° | 0km/h | 19864m | 6.9m/s | -57.0°C | 1.6% | 0hPa | 0V | 00:00:00 | 00:00:00 | 00:00:00 | |
| LZ4TU-5 | 2026-09-05 06:31:45 | 42.48542 | 23.53339 | 39° | 13km/h | 19412m | 6.2m/s | -58.3°C | 1.8% | 0hPa | 0V | 00:00:00 | 00:00:00 | 00:00:00 | |
| LZ4TU-5 | 2026-09-05 06:31:41 | 42.48529 | 23.53325 | 41° | 15km/h | 19384m | 5.8m/s | -57.8°C | 1.8% | 0hPa | 0V | 00:00:00 | 00:00:00 | 00:00:00 | |
| LZ4TU-5 | 2026-09-05 06:30:08 | 42.48545 | 23.52889 | 72° | 24km/h | 18882m | 5.3m/s | -59.1°C | 2.0% | 0hPa | 0V | 00:00:00 | 00:00:00 | 00:00:00 | |
| LZ4TU-5 | 2026-09-05 06:30:04 | 42.48535 | 23.52848 | 68° | 31km/h | 18854m | 6.2m/s | -59.2°C | 2.0% | 0hPa | 0V | 00:00:00 | 00:00:00 | 00:00:00 | |
| LZ4TU-5 | 2026-09-05 06:28:34 | 42.48419 | 23.52187 | 80° | 27km/h | 18367m | 6.3m/s | -60.0°C | 2.1% | 0hPa | 0V | 00:00:00 | 00:00:00 | 00:00:00 | |
| LZ4TU-5 | 2026-09-05 06:27:08 | 42.48340 | 23.51554 | 93° | 11km/h | 17900m | 5.9m/s | -59.7°C | 2.2% | 0hPa | 0V | 00:00:00 | 00:00:00 | 00:00:00 | |
| LZ4TU-5 | 2026-09-05 06:27:04 | 42.48338 | 23.51545 | 54° | 11km/h | 17878m | 4.5m/s | -59.6°C | 2.2% | 0hPa | 0V | 00:00:00 | 00:00:00 | 00:00:00 | |
| LZ4TU-5 | 2026-09-05 06:25:44 | 42.48613 | 23.50885 | 103° | 42km/h | 17447m | 6.0m/s | -60.0°C | 2.4% | 0hPa | 0V | 00:00:00 | 00:00:00 | 00:00:00 | |
| LZ4TU-5 | 2026-09-05 06:25:40 | 42.48621 | 23.50831 | 101° | 40km/h | 17426m | 5.2m/s | -59.8°C | 2.4% | 0hPa | 0V | 00:00:00 | 00:00:00 | 00:00:00 | |
| LZ4TU-5 | 2026-09-05 06:24:19 | 42.48546 | 23.49784 | 91° | 24km/h | 17007m | 4.5m/s | -60.6°C | 2.7% | 0hPa | 0V | 00:00:00 | 00:00:00 | 00:00:00 | |
| LZ4TU-5 | 2026-09-05 06:24:15 | 42.48549 | 23.49745 | 98° | 29km/h | 16986m | 4.9m/s | -60.5°C | 2.7% | 0hPa | 0V | 00:00:00 | 00:00:00 | 00:00:00 | |
| LZ4TU-5 | 2026-09-05 06:22:54 | 42.48412 | 23.48958 | 79° | 24km/h | 16563m | 7.2m/s | -61.0°C | 3.2% | 0hPa | 0V | 00:00:00 | 00:00:00 | 00:00:00 | |
| LZ4TU-5 | 2026-09-05 06:22:50 | 42.48408 | 23.48926 | 89° | 22km/h | 16541m | 6.3m/s | -60.8°C | 3.1% | 0hPa | 0V | 00:00:00 | 00:00:00 | 00:00:00 | |
| LZ4TU-5 | 2026-09-05 06:21:29 | 42.48570 | 23.48211 | 121° | 26km/h | 16093m | 5.8m/s | -61.3°C | 3.3% | 0hPa | 0V | 00:00:00 | 00:00:00 | 00:00:00 | |
| LZ4TU-5 | 2026-09-05 06:21:25 | 42.48584 | 23.48180 | 120° | 26km/h | 16071m | 4.9m/s | -61.2°C | 3.1% | 0hPa | 0V | 00:00:00 | 00:00:00 | 00:00:00 | |
| LZ4TU-5 | 2026-09-05 06:20:03 | 42.48645 | 23.47306 | 87° | 31km/h | 15633m | 6.1m/s | -59.6°C | 3.0% | 0hPa | 0V | 00:00:00 | 00:00:00 | 00:00:00 | |
| LZ4TU-5 | 2026-09-05 06:19:59 | 42.48638 | 23.47262 | 72° | 35km/h | 15612m | 5.3m/s | -59.7°C | 3.0% | 0hPa | 0V | 00:00:00 | 00:00:00 | 00:00:00 | |
| LZ4TU-5 | 2026-09-05 06:18:37 | 42.48664 | 23.46523 | 97° | 26km/h | 15186m | 4.6m/s | -59.8°C | 3.7% | 0hPa | 0V | 00:00:00 | 00:00:00 | 00:00:00 | |
| LZ4TU-5 | 2026-09-05 06:18:33 | 42.48663 | 23.46487 | 92° | 27km/h | 15167m | 4.4m/s | -60.0°C | 3.8% | 0hPa | 0V | 00:00:00 | 00:00:00 | 00:00:00 | |
| LZ4TU-5 | 2026-09-05 06:17:12 | 42.48799 | 23.45741 | 104° | 35km/h | 14752m | 5.5m/s | -60.3°C | 5.0% | 0hPa | 0V | 00:00:00 | 00:00:00 | 00:00:00 | |
| LZ4TU-5 | 2026-09-05 06:17:08 | 42.48811 | 23.45697 | 117° | 33km/h | 14733m | 5.9m/s | -60.5°C | 5.1% | 0hPa | 0V | 00:00:00 | 00:00:00 | 00:00:00 | |
| LZ4TU-5 | 2026-09-05 06:15:48 | 42.49339 | 23.44839 | 125° | 40km/h | 14336m | 4.2m/s | -62.9°C | 16.1% | 0hPa | 0V | 00:00:00 | 00:00:00 | 00:00:00 | |
| LZ4TU-5 | 2026-09-05 06:15:44 | 42.49360 | 23.44793 | 123° | 40km/h | 14317m | 4.5m/s | -63.3°C | 17.5% | 0hPa | 0V | 00:00:00 | 00:00:00 | 00:00:00 | |
| LZ4TU-5 | 2026-09-05 06:14:20 | 42.49727 | 23.44113 | 138° | 20km/h | 13921m | 4.7m/s | -66.6°C | 38.3% | 0hPa | 0V | 00:00:00 | 00:00:00 | 00:00:00 | |
| LZ4TU-5 | 2026-09-05 06:13:00 | 42.50108 | 23.43950 | 179° | 29km/h | 13518m | 5.2m/s | -65.1°C | 35.3% | 0hPa | 0V | 00:00:00 | 00:00:00 | 00:00:00 | |
| LZ4TU-5 | 2026-09-05 06:12:56 | 42.50140 | 23.43949 | 179° | 31km/h | 13498m | 6.1m/s | -64.9°C | 33.9% | 0hPa | 0V | 00:00:00 | 00:00:00 | 00:00:00 | |
| LZ4TU-5 | 2026-09-05 06:11:32 | 42.50703 | 23.43914 | 169° | 20km/h | 13092m | 4.4m/s | -62.4°C | 28.6% | 0hPa | 0V | 00:00:00 | 00:00:00 | 00:00:00 | |
| LZ4TU-5 | 2026-09-05 06:10:13 | 42.51095 | 23.43769 | 170° | 24km/h | 12707m | 5.8m/s | -59.5°C | 24.9% | 0hPa | 0V | 00:00:00 | 00:00:00 | 00:00:00 | |
| LZ4TU-5 | 2026-09-05 06:10:09 | 42.51121 | 23.43762 | 169° | 29km/h | 12684m | 5.6m/s | -59.4°C | 24.0% | 0hPa | 0V | 00:00:00 | 00:00:00 | 00:00:00 | |
| LZ4TU-5 | 2026-09-05 06:08:47 | 42.51819 | 23.43482 | 160° | 44km/h | 12307m | 3.9m/s | -56.4°C | 21.9% | 0hPa | 0V | 00:00:00 | 00:00:00 | 00:00:00 | |
| LZ4TU-5 | 2026-09-05 06:08:43 | 42.51860 | 23.43461 | 164° | 42km/h | 12288m | 4.0m/s | -56.1°C | 0% | 0hPa | 0V | 00:00:00 | 00:00:00 | 00:00:00 | |
| LZ4TU-5 | 2026-09-05 06:07:12 | 42.52752 | 23.42933 | 158° | 42km/h | 11873m | 3.9m/s | -53.2°C | 0% | 0hPa | 0V | 00:00:00 | 00:00:00 | 00:00:00 | |
| LZ4TU-5 | 2026-09-05 06:05:49 | 42.53515 | 23.42414 | 154° | 37km/h | 11490m | 4.0m/s | -50.6°C | 0% | 0hPa | 0V | 00:00:00 | 00:00:00 | 00:00:00 | |
| LZ4TU-5 | 2026-09-05 06:05:45 | 42.53546 | 23.42388 | 149° | 35km/h | 11471m | 4.7m/s | -50.6°C | 0% | 0hPa | 0V | 00:00:00 | 00:00:00 | 00:00:00 | |
| LZ4TU-5 | 2026-09-05 06:04:18 | 42.54193 | 23.41864 | 142° | 27km/h | 11060m | 4.7m/s | -46.8°C | 0% | 0hPa | 0V | 00:00:00 | 00:00:00 | 00:00:00 | |
| LZ4TU-5 | 2026-09-05 06:02:57 | 42.54673 | 23.41430 | 143° | 24km/h | 10679m | 3.6m/s | -43.6°C | 0% | 0hPa | 0V | 00:00:00 | 00:00:00 | 00:00:00 | |
| LZ4TU-5 | 2026-09-05 06:02:53 | 42.54693 | 23.41408 | 144° | 24km/h | 10660m | 3.5m/s | -43.6°C | 0% | 0hPa | 0V | 00:00:00 | 00:00:00 | 00:00:00 | |
| LZ4TU-5 | 2026-09-05 06:01:32 | 42.55120 | 23.41029 | 147° | 27km/h | 10282m | 7.3m/s | -40.0°C | 0% | 0hPa | 0V | 00:00:00 | 00:00:00 | 00:00:00 | |
| LZ4TU-5 | 2026-09-05 06:01:28 | 42.55149 | 23.41006 | 151° | 35km/h | 10258m | 7.3m/s | -39.8°C | 0% | 0hPa | 0V | 00:00:00 | 00:00:00 | 00:00:00 | |
| LZ4TU-5 | 2026-09-05 06:00:04 | 42.55795 | 23.40604 | 163° | 31km/h | 9782m | 6.4m/s | -35.6°C | 0% | 0hPa | 0V | 00:00:00 | 00:00:00 | 00:00:00 | |
| LZ4TU-5 | 2026-09-05 05:58:45 | 42.56260 | 23.40206 | 142° | 24km/h | 9329m | 7.9m/s | -32.0°C | 0% | 0hPa | 0V | 00:00:00 | 00:00:00 | 00:00:00 | |
| LZ4TU-5 | 2026-09-05 05:57:21 | 42.56737 | 23.39550 | 134° | 29km/h | 8831m | 8.9m/s | -28.1°C | 0% | 0hPa | 0V | 00:00:00 | 00:00:00 | 00:00:00 | |
| LZ4TU-5 | 2026-09-05 05:57:16 | 42.56761 | 23.39502 | 121° | 37km/h | 8798m | 4.4m/s | -27.9°C | 0% | 0hPa | 0V | 00:00:00 | 00:00:00 | 00:00:00 | |
| LZ4TU-5 | 2026-09-05 05:55:56 | 42.57281 | 23.39021 | 153° | 29km/h | 8354m | 5.7m/s | -25.1°C | 0% | 0hPa | 0V | 00:00:00 | 00:00:00 | 00:00:00 | |
| LZ4TU-5 | 2026-09-05 05:55:52 | 42.57306 | 23.39006 | 162° | 26km/h | 8332m | 6.4m/s | -24.9°C | 0% | 0hPa | 0V | 00:00:00 | 00:00:00 | 00:00:00 | |
| LZ4TU-5 | 2026-09-05 05:54:32 | 42.57852 | 23.38530 | 147° | 26km/h | 7937m | 5.9m/s | -22.0°C | 0% | 0hPa | 0V | 00:00:00 | 00:00:00 | 00:00:00 | |
| LZ4TU-5 | 2026-09-05 05:54:27 | 42.57882 | 23.38503 | 148° | 29km/h | 7914m | 5.7m/s | -21.8°C | 0% | 0hPa | 0V | 00:00:00 | 00:00:00 | 00:00:00 | |
| LZ4TU-5 | 2026-09-05 05:53:07 | 42.58362 | 23.38068 | 170° | 33km/h | 7512m | 6.8m/s | -18.7°C | 0% | 0hPa | 0V | 00:00:00 | 00:00:00 | 00:00:00 | |
| LZ4TU-5 | 2026-09-05 05:53:02 | 42.58389 | 23.38064 | 171° | 22km/h | 7491m | 7.2m/s | -18.5°C | 0% | 0hPa | 0V | 00:00:00 | 00:00:00 | 00:00:00 | |
| LZ4TU-5 | 2026-09-05 05:51:43 | 42.58882 | 23.37706 | 153° | 33km/h | 6985m | 6.2m/s | -14.4°C | 0% | 0hPa | 0V | 00:00:00 | 00:00:00 | 00:00:00 | |
| LZ4TU-5 | 2026-09-05 05:51:39 | 42.58906 | 23.37682 | 140° | 27km/h | 6964m | 4.8m/s | -14.2°C | 0% | 0hPa | 0V | 00:00:00 | 00:00:00 | 00:00:00 | |
| LZ4TU-5 | 2026-09-05 05:50:17 | 42.59464 | 23.37301 | 147° | 24km/h | 6573m | 5.1m/s | -11.8°C | 0% | 0hPa | 0V | 00:00:00 | 00:00:00 | 00:00:00 | |
| LZ4TU-5 | 2026-09-05 05:50:13 | 42.59484 | 23.37281 | 148° | 26km/h | 6555m | 3.8m/s | -11.7°C | 0% | 0hPa | 0V | 00:00:00 | 00:00:00 | 00:00:00 | |
| LZ4TU-5 | 2026-09-05 05:48:52 | 42.60002 | 23.36877 | 168° | 33km/h | 6089m | 4.4m/s | -8.9°C | 0% | 0hPa | 0V | 00:00:00 | 00:00:00 | 00:00:00 | |
| LZ4TU-5 | 2026-09-05 05:48:47 | 42.60032 | 23.36860 | 154° | 37km/h | 6064m | 6.6m/s | -8.7°C | 0% | 0hPa | 0V | 00:00:00 | 00:00:00 | 00:00:00 | |
| LZ4TU-5 | 2026-09-05 05:47:25 | 42.60633 | 23.36503 | 174° | 31km/h | 5614m | 4.4m/s | -5.8°C | 0% | 0hPa | 0V | 00:00:00 | 00:00:00 | 00:00:00 | |
| LZ4TU-5 | 2026-09-05 05:47:21 | 42.60673 | 23.36497 | 179° | 29km/h | 5593m | 3.7m/s | -5.8°C | 0% | 0hPa | 0V | 00:00:00 | 00:00:00 | 00:00:00 | |
| LZ4TU-5 | 2026-09-05 05:47:17 | 42.60702 | 23.36494 | 175° | 27km/h | 5575m | 3.6m/s | -5.7°C | 0% | 0hPa | 0V | 00:00:00 | 00:00:00 | 00:00:00 | |
| LZ4TU-5 | 2026-09-05 05:45:55 | 42.61227 | 23.36562 | 187° | 33km/h | 5155m | 3.8m/s | -4.5°C | 0% | 0hPa | 0V | 00:00:00 | 00:00:00 | 00:00:00 | |
| LZ4TU-5 | 2026-09-05 05:45:51 | 42.61254 | 23.36571 | 198° | 24km/h | 5137m | 8.8m/s | -4.4°C | 0% | 0hPa | 0V | 00:00:00 | 00:00:00 | 00:00:00 | |
| LZ4TU-5 | 2026-09-05 05:44:30 | 42.61737 | 23.37042 | 224° | 31km/h | 4709m | 2.7m/s | -2.3°C | 0% | 0hPa | 0V | 00:00:00 | 00:00:00 | 00:00:00 | |
| LZ4TU-5 | 2026-09-05 05:44:26 | 42.61761 | 23.37073 | 224° | 31km/h | 4692m | 4.4m/s | -2.2°C | 0% | 0hPa | 0V | 00:00:00 | 00:00:00 | 00:00:00 | |
| LZ4TU-5 | 2026-09-05 05:43:06 | 42.62244 | 23.37640 | 214° | 31km/h | 4285m | 6.1m/s | 1.4°C | 0% | 0hPa | 0V | 00:00:00 | 00:00:00 | 00:00:00 | |
| LZ4TU-5 | 2026-09-05 05:43:02 | 42.62270 | 23.37666 | 222° | 35km/h | 4268m | 5.0m/s | 1.5°C | 0% | 0hPa | 0V | 00:00:00 | 00:00:00 | 00:00:00 | |
| LZ4TU-5 | 2026-09-05 05:41:38 | 42.62880 | 23.38251 | 214° | 31km/h | 3851m | 3.2m/s | 0°C | 0% | 0hPa | 0V | 00:00:00 | 00:00:00 | 00:00:00 |